Nearby METAR Reports

 

KDFW - Dallas/Ft Worth, Texas, USA
Distance from station: NE 8mi, 14km
Updated: 11/16/2018 10:53am
Few Clouds
Few Clouds
 Wind from WSW
Wind: WSW 6 mph , 9 km/h
Temperature: 63°F , 17°C
Dew Point: 34°F , 1°C
Humidity: 34%
Barometer: 30.14 inHg , 1020.7 hPa
Clouds: Few Clouds
Visibility: 10 miles , 16 km
Cloud details: Few Clouds 30000 ft
2018/11/16 16:53 KDFW 161653Z 25005KT 10SM FEW300 17/01 A3014 RMK AO2 SLP201 T01720011
KFTW - Fort Worth, Texas, USA
Distance from station: W 13mi, 21km
Updated: 11/16/2018 10:53am
Clear
Clear
 Wind from SSW
Wind: SSW 9 mph , 15 km/h
Temperature: 64°F , 18°C
Dew Point: 34°F , 1°C
Humidity: 32%
Barometer: 30.14 inHg , 1020.7 hPa
Clouds: Clear
Visibility: 10 miles , 16 km
2018/11/16 16:53 KFTW 161653Z 21008KT 10SM CLR 18/01 A3014 RMK AO2 SLP203 T01830006
 
KAFW - Ft Worth/Allianc, Texas, USA
Distance from station: NW 14mi, 22km
Updated: 11/16/2018 10:53am
Clear
Clear
 Wind from W
Wind: W 7 mph , 11 km/h
Temperature: 64°F , 18°C
Dew Point: 34°F , 1°C
Humidity: 32%
Barometer: 30.14 inHg , 1020.7 hPa
Clouds: Clear
Visibility: 10 miles , 16 km
2018/11/16 16:53 KAFW 161653Z 26006KT 10SM CLR 18/01 A3014 RMK AO2 SLP203 T01830006
KDAL - Dallas/Love Fld, Texas, USA
Distance from station: E 17mi, 27km
Updated: 11/16/2018 10:53am
Few Clouds
Few Clouds
 Wind from calm
Wind: Calm
Temperature: 63°F , 17°C
Dew Point: 37°F , 3°C
Humidity: 39%
Barometer: 30.15 inHg , 1021 hPa
Clouds: Few Clouds
Visibility: 10 miles , 16 km
Cloud details: Few Clouds 25000 ft
2018/11/16 16:53 KDAL 161653Z 00000KT 10SM FEW250 17/03 A3015 RMK AO2 SLP208 T01670028
 
KNFW - Fort Worth Nas, Texas, USA
Distance from station: WSW 17mi, 28km
Updated: 11/16/2018 10:52am
Clear
Clear
 Wind from WSW
Wind: WSW 8 mph , 13 km/h
Temperature: 66°F , 19°C
Dew Point: 30°F , -1°C
Humidity: 26%
Barometer: 30.15 inHg , 1021 hPa
Clouds: Clear
Visibility: 7 miles , 11 km
2018/11/16 16:52 KNFW 161652Z 24007KT 7SM CLR 19/M01 A3015 RMK AO2 SLP191 T01941011 VISNO N $
KRBD - Dallas/Redbird, Texas, USA
Distance from station: ESE 19mi, 30km
Updated: 11/16/2018 10:53am
Clear
Clear
 Wind from WSW
Wind: WSW 7 mph , 11 km/h
Temperature: 63°F , 17°C
Dew Point: 34°F , 1°C
Humidity: 34%
Barometer: 30.15 inHg , 1021 hPa
Clouds: Clear
Visibility: 10 miles , 16 km
2018/11/16 16:53 KRBD 161653Z 25006KT 10SM CLR 17/01 A3015 RMK AO2 SLP206 T01670011
 
KFWS - Fort Worth/Spinks, Texas, USA
Distance from station: SSW 21mi, 33km
Updated: 11/16/2018 11:47am
Clear
Clear
 Wind from calm
Wind: Calm
Temperature: 68°F , 20°C
Dew Point: 34°F , 1°C
Humidity: 28%
Barometer: 30.15 inHg , 1021 hPa
Clouds: Clear
Visibility: 10 miles , 16 km
2018/11/16 17:47 KFWS 161747Z 00000KT 10SM CLR 20/01 A3015
KADS - Dallas/Addison, Texas, USA
Distance from station: ENE 21mi, 34km
Updated: 11/16/2018 11:47am
Clear
Clear
 Wind from SSW
Wind: SSW 7 mph , 11 km/h
Temperature: 64°F , 18°C
Dew Point: 34°F , 1°C
Humidity: 32%
Barometer: 30.13 inHg , 1020.3 hPa
Clouds: Clear
Visibility: 10 miles , 16 km
2018/11/16 17:47 KADS 161747Z 20006KT 10SM SKC 18/01 A3013
 
KDTO - Denton, Texas, USA
Distance from station: N 26mi, 41km
Updated: 11/16/2018 10:53am
Clear
Clear
 Wind from WSW
Wind: WSW 9 mph , 15 km/h
Temperature: 64°F , 18°C
Dew Point: 34°F , 1°C
Humidity: 32%
Barometer: 30.13 inHg , 1020.3 hPa
Clouds: Clear
Visibility: 10 miles , 16 km
2018/11/16 16:53 KDTO 161653Z 24008KT 10SM CLR 18/01 A3013 RMK AO2 SLP202 T01830006
KLUD - Decatur, Texas, USA
Distance from station: NW 39mi, 62km
Updated: 11/16/2018 11:35am
Clear
Clear
 Wind from SW
Wind: SW 3 mph , 6 km/h
Temperature: 64°F , 18°C
Dew Point: 32°F , 0°C
Humidity: 30%
Barometer: 30.11 inHg , 1019.6 hPa
Clouds: Clear
Visibility: 10 miles , 16 km
2018/11/16 17:35 KLUD 161735Z AUTO 22003KT 10SM CLR 18/00 A3011 RMK AO2 T01830001
 
KSPS - Wichita Falls/Sheppard AFB, Texas, USA
Distance from station: NW 111mi, 179km
Updated: 11/16/2018 10:52am
Clear
Clear
 Wind from varies
Wind: varies 5 mph , 7 km/h
Temperature: 54°F , 12°C
Dew Point: 37°F , 3°C
Humidity: 54%
Barometer: 30.11 inHg , 1019.6 hPa
Clouds: Clear
Visibility: 10 miles , 16 km
2018/11/16 16:52 KSPS 161652Z VRB04KT 10SM CLR 12/03 A3011 RMK AO2 SLP193 T01220033